BAW84B EBBR-EDDF
Flight info
| Callsign | BAW84B |
|---|---|
| Flight time | 0h 40m |
| Altitude | 23000 |
| Route | SPI4E SPI T180 NIVNU T847 IMCOM IMCOM1A |
| Aircraft | A320/M-SDE3FGIJ1KRWXY/SB1 |
Departure
| Time | 2026-04-15 15:31 |
|---|---|
| Airport | Brussels Airport (EBBR) |
Arrival
| Time | 2026-04-15 16:11 |
|---|---|
| Airport | Frankfurt Main Airport (EDDF) |
| Time | Latitude | Longitude | Altitude | Speed | Heading |
|---|---|---|---|---|---|
| 2026-04-15 15:02 | 50.89996 | 4.48890 | 126 ft | 0 kts | 335° |
| 2026-04-15 15:21 | 50.89988 | 4.48896 | 126 ft | 4 kts | 336° |
| 2026-04-15 15:21 | 50.89963 | 4.48913 | 132 ft | 4 kts | 338° |
| 2026-04-15 15:21 | 50.89938 | 4.48928 | 134 ft | 4 kts | 343° |
| 2026-04-15 15:22 | 50.89912 | 4.48937 | 135 ft | 4 kts | 3° |
| 2026-04-15 15:22 | 50.89892 | 4.48927 | 136 ft | 2 kts | 64° |
| 2026-04-15 15:22 | 50.89891 | 4.48924 | 136 ft | 0 kts | 65° |
| 2026-04-15 15:24 | 50.89891 | 4.48925 | 136 ft | 0 kts | 65° |
| 2026-04-15 15:24 | 50.89897 | 4.48946 | 136 ft | 4 kts | 66° |
| 2026-04-15 15:25 | 50.89914 | 4.49009 | 136 ft | 7 kts | 66° |
| 2026-04-15 15:25 | 50.89936 | 4.49081 | 136 ft | 7 kts | 64° |
| 2026-04-15 15:25 | 50.89960 | 4.49160 | 135 ft | 9 kts | 66° |
| 2026-04-15 15:25 | 50.89981 | 4.49264 | 133 ft | 11 kts | 71° |
| 2026-04-15 15:26 | 50.90019 | 4.49385 | 127 ft | 13 kts | 58° |
| 2026-04-15 15:26 | 50.90100 | 4.49448 | 129 ft | 14 kts | 13° |
| 2026-04-15 15:26 | 50.90198 | 4.49487 | 128 ft | 16 kts | 14° |
| 2026-04-15 15:26 | 50.90311 | 4.49534 | 123 ft | 18 kts | 14° |
| 2026-04-15 15:27 | 50.90437 | 4.49584 | 121 ft | 19 kts | 14° |
| 2026-04-15 15:27 | 50.90575 | 4.49641 | 124 ft | 21 kts | 14° |
| 2026-04-15 15:27 | 50.90720 | 4.49701 | 122 ft | 23 kts | 14° |
| 2026-04-15 15:27 | 50.90829 | 4.49744 | 122 ft | 15 kts | 16° |
| 2026-04-15 15:28 | 50.90936 | 4.49806 | 121 ft | 17 kts | 31° |
| 2026-04-15 15:28 | 50.91036 | 4.49930 | 117 ft | 15 kts | 40° |
| 2026-04-15 15:28 | 50.91073 | 4.50057 | 119 ft | 14 kts | 105° |
| 2026-04-15 15:28 | 50.91039 | 4.50099 | 119 ft | 7 kts | 187° |
| 2026-04-15 15:29 | 50.91030 | 4.50095 | 117 ft | 0 kts | 194° |
| 2026-04-15 15:29 | 50.91029 | 4.50095 | 117 ft | 1 kts | 194° |
| 2026-04-15 15:30 | 50.90962 | 4.50067 | 116 ft | 34 kts | 194° |
| 2026-04-15 15:30 | 50.90517 | 4.49886 | 122 ft | 95 kts | 194° |
| 2026-04-15 15:30 | 50.89722 | 4.49563 | 149 ft | 138 kts | 194° |
| 2026-04-15 15:30 | 50.88743 | 4.49163 | 621 ft | 143 kts | 193° |
| 2026-04-15 15:31 | 50.87764 | 4.48973 | 1295 ft | 146 kts | 170° |
| 2026-04-15 15:31 | 50.86841 | 4.49921 | 1636 ft | 178 kts | 132° |
| 2026-04-15 15:31 | 50.86110 | 4.51648 | 1999 ft | 198 kts | 131° |
| 2026-04-15 15:31 | 50.85534 | 4.52900 | 2176 ft | 218 kts | 132° |
| 2026-04-15 15:32 | 50.84590 | 4.54930 | 2642 ft | 240 kts | 131° |
| 2026-04-15 15:32 | 50.83576 | 4.57121 | 3252 ft | 255 kts | 130° |
| 2026-04-15 15:32 | 50.82512 | 4.59438 | 4250 ft | 258 kts | 130° |
| 2026-04-15 15:32 | 50.81456 | 4.61753 | 5241 ft | 260 kts | 130° |
| 2026-04-15 15:33 | 50.80386 | 4.64121 | 6017 ft | 270 kts | 127° |
| 2026-04-15 15:33 | 50.79566 | 4.66867 | 6785 ft | 283 kts | 110° |
| 2026-04-15 15:33 | 50.78982 | 4.69872 | 7552 ft | 288 kts | 109° |
| 2026-04-15 15:33 | 50.78389 | 4.72905 | 8406 ft | 290 kts | 109° |
| 2026-04-15 15:34 | 50.77792 | 4.75930 | 9207 ft | 294 kts | 110° |
| 2026-04-15 15:34 | 50.76996 | 4.78917 | 9986 ft | 297 kts | 118° |
| 2026-04-15 15:34 | 50.76084 | 4.81941 | 10528 ft | 310 kts | 118° |
| 2026-04-15 15:34 | 50.75115 | 4.85126 | 10734 ft | 333 kts | 118° |
| 2026-04-15 15:35 | 50.74085 | 4.88509 | 11046 ft | 349 kts | 118° |
| 2026-04-15 15:35 | 50.73029 | 4.91994 | 11661 ft | 354 kts | 118° |
| 2026-04-15 15:35 | 50.71964 | 4.95523 | 12331 ft | 358 kts | 118° |
| 2026-04-15 15:35 | 50.70890 | 4.99085 | 13003 ft | 361 kts | 118° |
| 2026-04-15 15:36 | 50.69806 | 5.02680 | 13671 ft | 365 kts | 118° |
| 2026-04-15 15:36 | 50.68707 | 5.06312 | 14293 ft | 369 kts | 118° |
| 2026-04-15 15:36 | 50.67610 | 5.09927 | 14862 ft | 372 kts | 118° |
| 2026-04-15 15:36 | 50.66485 | 5.13615 | 15427 ft | 375 kts | 118° |
| 2026-04-15 15:37 | 50.65345 | 5.17343 | 15964 ft | 379 kts | 118° |
| 2026-04-15 15:37 | 50.64176 | 5.21153 | 16525 ft | 383 kts | 118° |
| 2026-04-15 15:37 | 50.63010 | 5.24948 | 17072 ft | 386 kts | 118° |
| 2026-04-15 15:37 | 50.61853 | 5.28726 | 17628 ft | 390 kts | 118° |
| 2026-04-15 15:38 | 50.60653 | 5.32640 | 18193 ft | 393 kts | 118° |
| 2026-04-15 15:38 | 50.59457 | 5.36532 | 18725 ft | 397 kts | 118° |
| 2026-04-15 15:38 | 50.58269 | 5.40399 | 19220 ft | 399 kts | 118° |
| 2026-04-15 15:38 | 50.57056 | 5.44348 | 19745 ft | 402 kts | 118° |
| 2026-04-15 15:39 | 50.55830 | 5.48318 | 20257 ft | 405 kts | 118° |
| 2026-04-15 15:39 | 50.54594 | 5.52312 | 20753 ft | 408 kts | 118° |
| 2026-04-15 15:39 | 50.53345 | 5.56334 | 21239 ft | 411 kts | 119° |
| 2026-04-15 15:39 | 50.52086 | 5.60378 | 21708 ft | 414 kts | 118° |
| 2026-04-15 15:40 | 50.51040 | 5.64624 | 22130 ft | 420 kts | 109° |
| 2026-04-15 15:40 | 50.50222 | 5.69048 | 22583 ft | 423 kts | 108° |
| 2026-04-15 15:40 | 50.49397 | 5.73501 | 23016 ft | 426 kts | 109° |
| 2026-04-15 15:40 | 50.48561 | 5.77979 | 23149 ft | 429 kts | 109° |
| 2026-04-15 15:41 | 50.47710 | 5.82499 | 23174 ft | 433 kts | 109° |
| 2026-04-15 15:41 | 50.46855 | 5.87034 | 23170 ft | 433 kts | 109° |
| 2026-04-15 15:41 | 50.46000 | 5.91566 | 23168 ft | 434 kts | 109° |
| 2026-04-15 15:41 | 50.45146 | 5.96105 | 23171 ft | 434 kts | 109° |
| 2026-04-15 15:42 | 50.44291 | 6.00642 | 23168 ft | 434 kts | 109° |
| 2026-04-15 15:42 | 50.43433 | 6.05175 | 23167 ft | 434 kts | 108° |
| 2026-04-15 15:42 | 50.42570 | 6.09704 | 23171 ft | 434 kts | 108° |
| 2026-04-15 15:42 | 50.41705 | 6.14234 | 23174 ft | 434 kts | 108° |
| 2026-04-15 15:43 | 50.40840 | 6.18763 | 23177 ft | 434 kts | 108° |
| 2026-04-15 15:43 | 50.39973 | 6.23290 | 23176 ft | 434 kts | 108° |
| 2026-04-15 15:43 | 50.39103 | 6.27816 | 23176 ft | 434 kts | 108° |
| 2026-04-15 15:43 | 50.38230 | 6.32337 | 23174 ft | 434 kts | 108° |
| 2026-04-15 15:44 | 50.37353 | 6.36866 | 23172 ft | 434 kts | 109° |
| 2026-04-15 15:44 | 50.36541 | 6.41412 | 23172 ft | 435 kts | 103° |
| 2026-04-15 15:44 | 50.36125 | 6.46105 | 23173 ft | 436 kts | 96° |
| 2026-04-15 15:44 | 50.35850 | 6.50830 | 23172 ft | 436 kts | 96° |
| 2026-04-15 15:45 | 50.35566 | 6.55553 | 23172 ft | 436 kts | 96° |
| 2026-04-15 15:45 | 50.35270 | 6.60280 | 23175 ft | 436 kts | 96° |
| 2026-04-15 15:45 | 50.34968 | 6.64998 | 23177 ft | 435 kts | 97° |
| 2026-04-15 15:45 | 50.34658 | 6.69706 | 23180 ft | 435 kts | 97° |
| 2026-04-15 15:46 | 50.34344 | 6.74425 | 23181 ft | 435 kts | 97° |
| 2026-04-15 15:46 | 50.34034 | 6.79137 | 23181 ft | 435 kts | 97° |
| 2026-04-15 15:46 | 50.33664 | 6.83829 | 23182 ft | 434 kts | 102° |
| 2026-04-15 15:46 | 50.32903 | 6.88342 | 22959 ft | 422 kts | 111° |
| 2026-04-15 15:47 | 50.31761 | 6.92512 | 22571 ft | 414 kts | 117° |
| 2026-04-15 15:47 | 50.30532 | 6.96566 | 22115 ft | 410 kts | 117° |
| 2026-04-15 15:47 | 50.29319 | 7.00584 | 21659 ft | 407 kts | 117° |
| 2026-04-15 15:47 | 50.28121 | 7.04581 | 21194 ft | 405 kts | 116° |
| 2026-04-15 15:48 | 50.26935 | 7.08558 | 20724 ft | 403 kts | 116° |
| 2026-04-15 15:48 | 50.25755 | 7.12518 | 20253 ft | 401 kts | 116° |
| 2026-04-15 15:48 | 50.24583 | 7.16452 | 19774 ft | 399 kts | 116° |
| 2026-04-15 15:48 | 50.23466 | 7.20400 | 19298 ft | 397 kts | 114° |
| 2026-04-15 15:49 | 50.22421 | 7.24376 | 18832 ft | 394 kts | 113° |
| 2026-04-15 15:49 | 50.21428 | 7.28332 | 18465 ft | 388 kts | 112° |
| 2026-04-15 15:49 | 50.20467 | 7.32227 | 18086 ft | 382 kts | 112° |
| 2026-04-15 15:49 | 50.19510 | 7.36081 | 17582 ft | 379 kts | 113° |
| 2026-04-15 15:50 | 50.18550 | 7.39883 | 17072 ft | 376 kts | 113° |
| 2026-04-15 15:50 | 50.17584 | 7.43657 | 16563 ft | 373 kts | 113° |
| 2026-04-15 15:50 | 50.16618 | 7.47396 | 16081 ft | 371 kts | 114° |
| 2026-04-15 15:50 | 50.15650 | 7.51110 | 15578 ft | 369 kts | 114° |
| 2026-04-15 15:51 | 50.14685 | 7.54797 | 15084 ft | 367 kts | 114° |
| 2026-04-15 15:51 | 50.13723 | 7.58464 | 14582 ft | 365 kts | 114° |
| 2026-04-15 15:51 | 50.12765 | 7.62125 | 14085 ft | 363 kts | 114° |
| 2026-04-15 15:51 | 50.11820 | 7.65761 | 13540 ft | 362 kts | 113° |
| 2026-04-15 15:52 | 50.10731 | 7.69258 | 13061 ft | 356 kts | 124° |
| 2026-04-15 15:52 | 50.09350 | 7.72387 | 12879 ft | 348 kts | 127° |
| 2026-04-15 15:52 | 50.07973 | 7.75472 | 12646 ft | 347 kts | 126° |
| 2026-04-15 15:52 | 50.06605 | 7.78558 | 12411 ft | 345 kts | 126° |
| 2026-04-15 15:53 | 50.05249 | 7.81624 | 12178 ft | 343 kts | 126° |
| 2026-04-15 15:53 | 50.03896 | 7.84676 | 11946 ft | 342 kts | 126° |
| 2026-04-15 15:53 | 50.02547 | 7.87717 | 11714 ft | 341 kts | 126° |
| 2026-04-15 15:53 | 50.01308 | 7.90857 | 11471 ft | 341 kts | 116° |
| 2026-04-15 15:54 | 50.00589 | 7.94358 | 11259 ft | 341 kts | 100° |
| 2026-04-15 15:54 | 50.00474 | 7.98033 | 11130 ft | 342 kts | 85° |
| 2026-04-15 15:54 | 50.00963 | 8.01647 | 11017 ft | 342 kts | 70° |
| 2026-04-15 15:54 | 50.01805 | 8.05105 | 10913 ft | 342 kts | 69° |
| 2026-04-15 15:55 | 50.02649 | 8.08551 | 10801 ft | 341 kts | 69° |
| 2026-04-15 15:55 | 50.03489 | 8.11986 | 10482 ft | 338 kts | 69° |
| 2026-04-15 15:55 | 50.04312 | 8.15344 | 10336 ft | 327 kts | 69° |
| 2026-04-15 15:55 | 50.05107 | 8.18598 | 10220 ft | 316 kts | 69° |
| 2026-04-15 15:56 | 50.05873 | 8.21749 | 10087 ft | 305 kts | 69° |
| 2026-04-15 15:56 | 50.06596 | 8.24737 | 9965 ft | 286 kts | 69° |
| 2026-04-15 15:56 | 50.07274 | 8.27543 | 9756 ft | 271 kts | 69° |
| 2026-04-15 15:56 | 50.07927 | 8.30254 | 9371 ft | 265 kts | 70° |
| 2026-04-15 15:57 | 50.08569 | 8.32920 | 8934 ft | 261 kts | 70° |
| 2026-04-15 15:57 | 50.09202 | 8.35554 | 8534 ft | 257 kts | 70° |
| 2026-04-15 15:57 | 50.09827 | 8.38145 | 8412 ft | 258 kts | 70° |
| 2026-04-15 15:57 | 50.10456 | 8.40761 | 8287 ft | 257 kts | 70° |
| 2026-04-15 15:58 | 50.11081 | 8.43368 | 8181 ft | 256 kts | 70° |
| 2026-04-15 15:58 | 50.11705 | 8.45967 | 8165 ft | 256 kts | 70° |
| 2026-04-15 15:58 | 50.12329 | 8.48568 | 8167 ft | 256 kts | 70° |
| 2026-04-15 15:58 | 50.12951 | 8.51163 | 8167 ft | 256 kts | 70° |
| 2026-04-15 15:59 | 50.13572 | 8.53766 | 8166 ft | 256 kts | 70° |
| 2026-04-15 15:59 | 50.14193 | 8.56372 | 8167 ft | 256 kts | 70° |
| 2026-04-15 15:59 | 50.14812 | 8.58975 | 8156 ft | 257 kts | 70° |
| 2026-04-15 15:59 | 50.15433 | 8.61583 | 8041 ft | 256 kts | 70° |
| 2026-04-15 16:00 | 50.16050 | 8.64171 | 7894 ft | 254 kts | 70° |
| 2026-04-15 16:00 | 50.16666 | 8.66752 | 7781 ft | 254 kts | 70° |
| 2026-04-15 16:00 | 50.17278 | 8.69329 | 7651 ft | 253 kts | 70° |
| 2026-04-15 16:00 | 50.17888 | 8.71903 | 7527 ft | 252 kts | 71° |
| 2026-04-15 16:01 | 50.18494 | 8.74465 | 7407 ft | 252 kts | 70° |
| 2026-04-15 16:01 | 50.19100 | 8.77023 | 7285 ft | 251 kts | 70° |
| 2026-04-15 16:01 | 50.19704 | 8.79572 | 7163 ft | 250 kts | 71° |
| 2026-04-15 16:01 | 50.20301 | 8.82116 | 7046 ft | 249 kts | 71° |
| 2026-04-15 16:02 | 50.20892 | 8.84642 | 6923 ft | 249 kts | 71° |
| 2026-04-15 16:02 | 50.21487 | 8.87181 | 6803 ft | 248 kts | 71° |
| 2026-04-15 16:02 | 50.22079 | 8.89703 | 6687 ft | 247 kts | 71° |
| 2026-04-15 16:02 | 50.22670 | 8.92217 | 6518 ft | 246 kts | 71° |
| 2026-04-15 16:03 | 50.23255 | 8.94715 | 6291 ft | 244 kts | 71° |
| 2026-04-15 16:03 | 50.23821 | 8.97210 | 6077 ft | 243 kts | 76° |
| 2026-04-15 16:03 | 50.23843 | 8.99779 | 5869 ft | 237 kts | 109° |
| 2026-04-15 16:03 | 50.23005 | 9.01922 | 5665 ft | 232 kts | 141° |
| 2026-04-15 16:04 | 50.21603 | 9.03109 | 5457 ft | 230 kts | 163° |
| 2026-04-15 16:04 | 50.20036 | 9.03239 | 5255 ft | 228 kts | 195° |
| 2026-04-15 16:04 | 50.18665 | 9.02045 | 5089 ft | 229 kts | 220° |
| 2026-04-15 16:04 | 50.17488 | 9.00352 | 5000 ft | 230 kts | 224° |
| 2026-04-15 16:05 | 50.16331 | 8.98612 | 4999 ft | 231 kts | 223° |
| 2026-04-15 16:05 | 50.15189 | 8.96839 | 4997 ft | 232 kts | 231° |
| 2026-04-15 16:05 | 50.14371 | 8.94675 | 4999 ft | 233 kts | 245° |
| 2026-04-15 16:05 | 50.13783 | 8.92316 | 4997 ft | 234 kts | 249° |
| 2026-04-15 16:06 | 50.13234 | 8.89933 | 4994 ft | 234 kts | 249° |
| 2026-04-15 16:06 | 50.12679 | 8.87551 | 4994 ft | 233 kts | 249° |
| 2026-04-15 16:06 | 50.12120 | 8.85174 | 4854 ft | 234 kts | 249° |
| 2026-04-15 16:06 | 50.11562 | 8.82804 | 4558 ft | 233 kts | 249° |
| 2026-04-15 16:07 | 50.11007 | 8.80451 | 4227 ft | 228 kts | 248° |
| 2026-04-15 16:07 | 50.10468 | 8.78165 | 3905 ft | 221 kts | 249° |
| 2026-04-15 16:07 | 50.09437 | 8.73803 | 3288 ft | 208 kts | 248° |
| 2026-04-15 16:08 | 50.08944 | 8.71718 | 2990 ft | 201 kts | 248° |
| 2026-04-15 16:08 | 50.08468 | 8.69709 | 2706 ft | 195 kts | 248° |
| 2026-04-15 16:08 | 50.08005 | 8.67758 | 2426 ft | 189 kts | 248° |
| 2026-04-15 16:08 | 50.07553 | 8.65854 | 2169 ft | 185 kts | 248° |
| 2026-04-15 16:09 | 50.07118 | 8.64020 | 1920 ft | 177 kts | 248° |
| 2026-04-15 16:09 | 50.06712 | 8.62313 | 1683 ft | 158 kts | 249° |
| 2026-04-15 16:09 | 50.06346 | 8.60775 | 1437 ft | 147 kts | 249° |
| 2026-04-15 16:09 | 50.05995 | 8.59303 | 1243 ft | 144 kts | 249° |
| 2026-04-15 16:10 | 50.05651 | 8.57857 | 1031 ft | 142 kts | 249° |
| 2026-04-15 16:10 | 50.05306 | 8.56410 | 815 ft | 142 kts | 249° |
| 2026-04-15 16:10 | 50.04963 | 8.54967 | 626 ft | 143 kts | 250° |
| 2026-04-15 16:10 | 50.04619 | 8.53520 | 435 ft | 142 kts | 250° |
| 2026-04-15 16:11 | 50.04275 | 8.52107 | 350 ft | 130 kts | 250° |
| 2026-04-15 16:11 | 50.04016 | 8.51013 | 326 ft | 83 kts | 249° |
| 2026-04-15 16:11 | 50.03881 | 8.50459 | 322 ft | 32 kts | 241° |
| 2026-04-15 16:11 | 50.03738 | 8.50248 | 319 ft | 20 kts | 219° |
| 2026-04-15 16:12 | 50.03646 | 8.50184 | 321 ft | 9 kts | 153° |
| 2026-04-15 16:12 | 50.03622 | 8.50223 | 324 ft | 7 kts | 115° |
| 2026-04-15 16:12 | 50.03633 | 8.50311 | 325 ft | 10 kts | 69° |
| 2026-04-15 16:12 | 50.03666 | 8.50445 | 325 ft | 16 kts | 69° |
| 2026-04-15 16:13 | 50.03712 | 8.50634 | 329 ft | 21 kts | 69° |
| 2026-04-15 16:13 | 50.03771 | 8.50874 | 329 ft | 26 kts | 70° |
| 2026-04-15 16:13 | 50.03836 | 8.51154 | 336 ft | 28 kts | 69° |
| 2026-04-15 16:13 | 50.03908 | 8.51449 | 335 ft | 30 kts | 69° |
| 2026-04-15 16:14 | 50.03979 | 8.51747 | 336 ft | 28 kts | 69° |
| 2026-04-15 16:14 | 50.04042 | 8.52013 | 336 ft | 26 kts | 69° |
| 2026-04-15 16:14 | 50.04105 | 8.52280 | 352 ft | 26 kts | 70° |
| 2026-04-15 16:14 | 50.04164 | 8.52520 | 351 ft | 23 kts | 70° |
| 2026-04-15 16:15 | 50.04221 | 8.52760 | 358 ft | 24 kts | 70° |
| 2026-04-15 16:15 | 50.04280 | 8.53007 | 356 ft | 25 kts | 69° |
| 2026-04-15 16:15 | 50.04338 | 8.53251 | 364 ft | 23 kts | 69° |
| 2026-04-15 16:15 | 50.04388 | 8.53462 | 374 ft | 19 kts | 74° |
| 2026-04-15 16:16 | 50.04405 | 8.53670 | 375 ft | 20 kts | 85° |
| 2026-04-15 16:16 | 50.04420 | 8.53901 | 375 ft | 22 kts | 83° |
| 2026-04-15 16:16 | 50.04437 | 8.54147 | 375 ft | 24 kts | 84° |
| 2026-04-15 16:16 | 50.04452 | 8.54403 | 372 ft | 17 kts | 86° |
| 2026-04-15 16:17 | 50.04432 | 8.54577 | 369 ft | 19 kts | 112° |
| 2026-04-15 16:17 | 50.04343 | 8.54745 | 359 ft | 22 kts | 146° |
| 2026-04-15 16:17 | 50.04207 | 8.54831 | 358 ft | 20 kts | 158° |
| 2026-04-15 16:17 | 50.04091 | 8.54896 | 354 ft | 11 kts | 160° |
| 2026-04-15 16:18 | 50.04023 | 8.54940 | 355 ft | 10 kts | 141° |
| 2026-04-15 16:18 | 50.04022 | 8.55036 | 353 ft | 10 kts | 71° |
| 2026-04-15 16:18 | 50.04051 | 8.55154 | 353 ft | 13 kts | 70° |
| 2026-04-15 16:18 | 50.04086 | 8.55305 | 360 ft | 17 kts | 69° |
| 2026-04-15 16:19 | 50.04130 | 8.55496 | 357 ft | 20 kts | 68° |
| 2026-04-15 16:19 | 50.04185 | 8.55716 | 358 ft | 23 kts | 69° |
| 2026-04-15 16:19 | 50.04245 | 8.55961 | 361 ft | 25 kts | 69° |
| 2026-04-15 16:19 | 50.04309 | 8.56230 | 361 ft | 28 kts | 69° |
| 2026-04-15 16:20 | 50.04377 | 8.56515 | 361 ft | 25 kts | 68° |
| 2026-04-15 16:20 | 50.04438 | 8.56773 | 360 ft | 25 kts | 70° |
| 2026-04-15 16:20 | 50.04502 | 8.57033 | 361 ft | 27 kts | 70° |
| 2026-04-15 16:20 | 50.04557 | 8.57269 | 360 ft | 23 kts | 70° |
| 2026-04-15 16:21 | 50.04611 | 8.57494 | 360 ft | 21 kts | 70° |
| 2026-04-15 16:21 | 50.04662 | 8.57706 | 363 ft | 20 kts | 69° |
| 2026-04-15 16:21 | 50.04705 | 8.57874 | 363 ft | 14 kts | 58° |
| 2026-04-15 16:21 | 50.04773 | 8.57973 | 361 ft | 12 kts | 44° |
| 2026-04-15 16:22 | 50.04814 | 8.58094 | 358 ft | 13 kts | 70° |
| 2026-04-15 16:22 | 50.04842 | 8.58222 | 360 ft | 12 kts | 70° |
| 2026-04-15 16:22 | 50.04874 | 8.58344 | 362 ft | 13 kts | 68° |
| 2026-04-15 16:22 | 50.04895 | 8.58436 | 359 ft | 7 kts | 70° |
| 2026-04-15 16:23 | 50.04929 | 8.58473 | 361 ft | 6 kts | 341° |
| 2026-04-15 16:23 | 50.04972 | 8.58445 | 363 ft | 7 kts | 340° |
| 2026-04-15 16:23 | 50.04995 | 8.58432 | 361 ft | 1 kts | 340° |
| 2026-04-15 16:23 | 50.05000 | 8.58429 | 362 ft | 0 kts | 340° |